Time;durP1;ratioP1;P1;durP2;ratioP2;P2;SDS_P1;SDS_P2;PMS_P1;PMS_P2;Temp;Humidity;BMP_temperature;BMP_pressure;BME280_temperature;BME280_humidity;BME280_pressure;Samples;Min_cycle;Max_cycle;Signal;HPM_P1;HPM_P2
2022/06/16 00:01:17;;;;;;;3.60;1.90;;;;;;;13.92;66.09;101123.96;107471;1281;72725;-87
2022/06/16 00:03:52;;;;;;;3.80;1.80;;;;;;;13.90;66.22;101127.91;107885;1281;72927;-87
2022/06/16 00:06:22;;;;;;;3.20;2.10;;;;;;;13.87;66.12;101123.01;107731;1281;60501;-87
2022/06/16 00:08:49;;;;;;;4.60;1.90;;;;;;;13.85;66.33;101116.36;107346;1281;61441;-86
2022/06/16 00:11:17;;;;;;;2.90;1.70;;;;;;;13.84;66.41;101117.92;107389;1282;74981;-86
2022/06/16 00:13:47;;;;;;;2.60;1.80;;;;;;;13.82;66.51;101115.69;107998;1281;71858;-86
2022/06/16 00:16:15;;;;;;;3.20;1.80;;;;;;;13.80;66.65;101116.64;107797;1281;72953;-86
2022/06/16 00:18:45;;;;;;;6.50;2.00;;;;;;;13.78;66.35;101120.63;107292;1280;61251;-86
2022/06/16 00:21:14;;;;;;;3.80;2.00;;;;;;;13.73;66.53;101114.22;107680;1281;61248;-86
2022/06/16 00:23:41;;;;;;;5.90;2.20;;;;;;;13.70;66.62;101110.85;107854;1280;76139;-86
2022/06/16 00:26:14;;;;;;;5.20;2.20;;;;;;;13.66;66.56;101107.84;107545;1282;70808;-86
2022/06/16 00:28:42;;;;;;;5.30;2.00;;;;;;;13.62;67.03;101105.25;107566;1281;73938;-87
2022/06/16 00:31:14;;;;;;;4.80;2.20;;;;;;;13.58;67.53;101104.87;107227;1281;59637;-86
2022/06/16 00:33:45;;;;;;;4.10;1.90;;;;;;;13.55;67.55;101101.68;107480;1281;61122;-87
2022/06/16 00:36:16;;;;;;;5.30;2.00;;;;;;;13.52;67.21;101099.66;107239;1282;76679;-86
2022/06/16 00:38:43;;;;;;;4.80;2.30;;;;;;;13.46;67.77;101095.41;107863;1281;72627;-86
2022/06/16 00:41:16;;;;;;;2.60;1.70;;;;;;;13.44;67.57;101092.01;107861;1281;74723;-86
2022/06/16 00:43:52;;;;;;;4.30;2.10;;;;;;;13.39;67.60;101090.77;107412;1281;60773;-86
2022/06/16 00:46:22;;;;;;;4.00;2.10;;;;;;;13.34;68.25;101076.95;107639;1282;59252;-87
2022/06/16 00:48:56;;;;;;;3.90;2.20;;;;;;;13.31;68.28;101071.86;107765;1281;74547;-87
2022/06/16 00:51:44;;;;;;;;;;;;;;;;;;;;;
2022/06/16 00:54:45;;;;;;;4.20;1.80;;;;;;;13.24;68.32;101068.05;107469;1280;73204;-87
2022/06/16 00:57:30;;;;;;;3.90;2.10;;;;;;;13.20;68.77;101063.32;107604;1281;61941;-86
2022/06/16 00:59:58;;;;;;;4.00;2.00;;;;;;;13.19;68.70;101069.94;107599;1281;61011;-86
2022/06/16 01:02:26;;;;;;;2.70;1.70;;;;;;;13.12;68.93;101068.11;107390;1282;74896;-87
2022/06/16 01:04:53;;;;;;;4.90;2.30;;;;;;;13.12;69.72;101082.42;107312;1281;71608;-86
2022/06/16 01:07:31;;;;;;;3.30;2.10;;;;;;;13.10;70.00;101084.10;107350;1281;73435;-87
2022/06/16 01:10:00;;;;;;;4.90;2.10;;;;;;;13.07;69.99;101082.30;107196;1281;64095;-87
2022/06/16 01:16:10;;;;;;;4.10;2.60;;;;;;;13.04;69.87;101085.36;107140;1282;75130;-87
2022/06/16 01:19:37;;;;;;;3.60;1.70;;;;;;;13.03;70.17;101094.17;107473;1281;72309;-85
2022/06/16 01:22:22;;;;;;;2.90;1.90;;;;;;;13.01;70.96;101106.63;107402;1281;74285;-85
2022/06/16 01:25:33;;;;;;;5.00;1.80;;;;;;;12.99;71.09;101111.44;107411;1281;63789;-88
2022/06/16 01:28:20;;;;;;;2.60;1.80;;;;;;;12.94;71.36;101111.86;107766;1281;61218;-86
2022/06/16 01:31:46;;;;;;;;;;;;;;;;;;;;;
2022/06/16 01:34:33;;;;;;;3.90;2.10;;;;;;;12.93;71.46;101114.13;106985;1282;70122;-87
2022/06/16 01:37:23;;;;;;;2.70;1.80;;;;;;;12.93;71.22;101105.07;107442;1281;74419;-87
2022/06/16 01:40:30;;;;;;;4.80;2.50;;;;;;;12.93;71.04;101093.08;107470;1279;62246;-87
2022/06/16 01:43:19;;;;;;;3.60;1.80;;;;;;;12.92;71.24;101092.77;107386;1281;60864;-88
2022/06/16 01:46:13;;;;;;;3.10;2.00;;;;;;;12.92;71.36;101090.11;107240;1281;75443;-87
2022/06/16 01:48:44;;;;;;;4.00;2.00;;;;;;;12.91;71.01;101077.80;107313;1282;71131;-87
2022/06/16 01:51:20;;;;;;;4.50;1.90;;;;;;;12.91;71.33;101069.48;107524;1281;74138;-88
2022/06/16 01:53:58;;;;;;;5.50;2.00;;;;;;;12.90;71.39;101076.88;107562;1281;61284;-87
2022/06/16 01:56:34;;;;;;;3.80;1.90;;;;;;;12.85;71.87;101083.64;107464;1281;61584;-87
2022/06/16 01:59:08;;;;;;;5.70;2.00;;;;;;;12.88;71.83;101089.92;107832;1281;75006;-88
2022/06/16 02:01:44;;;;;;;4.90;2.30;;;;;;;12.86;71.54;101082.10;107171;1281;71625;-87
2022/06/16 02:04:34;;;;;;;4.10;2.00;;;;;;;12.84;71.44;101061.05;107291;1281;73099;-87
2022/06/16 02:07:17;;;;;;;6.00;2.30;;;;;;;12.81;71.68;101040.48;107322;1281;63001;-87
2022/06/16 02:10:23;;;;;;;2.30;1.50;;;;;;;12.78;71.99;101032.49;107598;1281;62182;-87
2022/06/16 02:12:56;;;;;;;4.00;2.00;;;;;;;12.73;71.93;101044.22;107159;1281;73712;-87
2022/06/16 02:15:54;;;;;;;3.60;1.90;;;;;;;12.70;72.68;101076.77;107405;1281;70526;-86
2022/06/16 02:18:43;;;;;;;6.80;2.30;;;;;;;12.66;73.14;101102.73;107617;1281;74126;-86
2022/06/16 02:21:45;;;;;;;3.80;2.60;;;;;;;12.59;73.97;101117.96;107585;1282;63417;-88
2022/06/16 02:24:21;;;;;;;3.50;2.60;;;;;;;12.52;74.33;101120.71;107370;1281;60751;-86
2022/06/16 02:27:00;;;;;;;5.30;2.50;;;;;;;12.47;74.40;101118.55;107272;1281;76002;-87
2022/06/16 02:29:32;;;;;;;3.70;2.20;;;;;;;12.45;74.41;101124.98;107329;1281;72128;-86
2022/06/16 02:32:03;;;;;;;4.60;2.60;;;;;;;12.45;74.34;101121.00;107532;1281;73811;-85
2022/06/16 02:35:09;;;;;;;4.60;2.10;;;;;;;12.43;74.34;101112.77;107622;1281;62439;-86
2022/06/16 02:38:14;;;;;;;5.60;2.70;;;;;;;12.45;74.49;101116.90;107445;1281;61148;-87
2022/06/16 02:40:56;;;;;;;3.30;2.30;;;;;;;12.45;74.66;101119.89;107206;1281;75608;-86
2022/06/16 02:43:46;;;;;;;2.90;2.00;;;;;;;12.44;74.70;101120.53;107624;1281;72493;-86
2022/06/16 02:46:39;;;;;;;3.50;2.20;;;;;;;12.43;74.92;101118.30;107685;1281;74457;-86
2022/06/16 02:49:26;;;;;;;3.50;2.30;;;;;;;12.42;74.81;101115.28;107414;1281;63319;-86
2022/06/16 02:52:07;;;;;;;3.90;2.40;;;;;;;12.37;75.02;101109.43;107752;1280;61372;-86
2022/06/16 02:55:07;;;;;;;3.10;2.00;;;;;;;12.39;75.02;101107.83;107366;1281;76628;-87
2022/06/16 02:57:55;;;;;;;3.50;2.40;;;;;;;12.37;75.34;101106.95;107299;1281;72645;-88
2022/06/16 03:00:37;;;;;;;3.40;1.80;;;;;;;12.37;75.60;101105.02;107664;1281;73518;-87
2022/06/16 03:03:59;;;;;;;2.80;1.80;;;;;;;12.37;75.28;101103.66;107533;1281;62807;-88
2022/06/16 03:06:37;;;;;;;3.30;1.80;;;;;;;12.36;75.42;101105.62;106754;1287;61289;-87
2022/06/16 03:09:04;;;;;;;3.00;2.00;;;;;;;12.37;75.42;101107.18;106929;1287;75076;-88
2022/06/16 03:11:37;;;;;;;5.70;2.70;;;;;;;12.36;75.41;101102.63;107166;1283;71665;-87
2022/06/16 03:14:04;;;;;;;2.70;1.90;;;;;;;12.37;75.56;101101.20;107243;1281;74972;-87
2022/06/16 03:16:44;;;;;;;5.10;2.00;;;;;;;12.37;75.59;101104.36;107311;1281;60959;-88
2022/06/16 03:19:22;;;;;;;3.40;2.20;;;;;;;12.37;75.31;101104.32;107262;1281;61197;-89
2022/06/16 03:21:54;;;;;;;3.70;2.30;;;;;;;12.35;75.62;101093.95;107556;1281;75847;-87
2022/06/16 03:24:22;;;;;;;4.90;2.00;;;;;;;12.35;75.66;101089.46;107350;1281;72284;-86
2022/06/16 03:26:55;;;;;;;5.50;2.90;;;;;;;12.34;75.74;101090.27;107415;1280;72989;-86
2022/06/16 03:29:25;;;;;;;5.60;2.30;;;;;;;12.33;75.85;101088.28;107615;1281;63606;-87
2022/06/16 03:31:56;;;;;;;4.50;1.90;;;;;;;12.32;75.76;101074.05;107561;1281;60642;-87
2022/06/16 03:34:24;;;;;;;4.80;2.50;;;;;;;12.32;75.94;101071.06;107652;1281;75812;-87
2022/06/16 03:36:54;;;;;;;4.90;2.10;;;;;;;12.31;76.29;101076.70;107239;1281;72434;-88
2022/06/16 03:39:30;;;;;;;5.20;2.80;;;;;;;12.31;76.43;101084.48;107857;1281;72866;-88
2022/06/16 03:41:59;;;;;;;3.20;1.90;;;;;;;12.31;76.71;101091.48;107492;1280;62658;-88
2022/06/16 03:44:35;;;;;;;5.90;2.30;;;;;;;12.31;77.05;101106.59;107254;1281;61384;-87
2022/06/16 03:47:05;;;;;;;4.70;2.50;;;;;;;12.28;78.12;101127.84;107430;1281;76193;-87
2022/06/16 03:49:38;;;;;;;5.30;2.40;;;;;;;12.24;78.49;101138.41;107366;1281;71524;-87
2022/06/16 03:52:06;;;;;;;4.10;2.50;;;;;;;12.21;78.67;101144.91;107590;1281;73572;-87
2022/06/16 03:54:39;;;;;;;4.90;2.30;;;;;;;12.21;78.83;101152.56;107374;1281;61958;-87
2022/06/16 03:57:14;;;;;;;4.30;2.30;;;;;;;12.24;78.89;101157.56;107498;1281;60349;-86
2022/06/16 03:59:48;;;;;;;4.00;2.20;;;;;;;12.28;78.39;101145.81;107572;1281;75117;-87
2022/06/16 04:02:21;;;;;;;3.40;2.10;;;;;;;12.34;78.43;101140.52;107792;1280;71541;-86
2022/06/16 04:04:48;;;;;;;4.10;2.00;;;;;;;12.40;77.98;101131.44;107677;1281;73685;-86
2022/06/16 04:07:26;;;;;;;3.70;1.90;;;;;;;12.44;77.82;101117.56;107833;1281;62685;-86
2022/06/16 04:09:56;;;;;;;3.70;2.40;;;;;;;12.55;77.74;101119.46;107741;1282;59376;-86
2022/06/16 04:12:29;;;;;;;3.00;1.80;;;;;;;12.62;77.67;101120.33;107786;1282;75729;-86
2022/06/16 04:14:55;;;;;;;4.50;2.40;;;;;;;12.71;77.28;101113.05;107953;1280;71398;-86
2022/06/16 04:17:23;;;;;;;4.00;1.90;;;;;;;12.78;76.98;101110.23;107841;1281;73056;-86
2022/06/16 04:22:35;;;;;;;5.50;2.20;;;;;;;12.92;76.56;101122.13;107951;1279;60570;-84
2022/06/16 04:25:03;;;;;;;6.60;3.60;;;;;;;12.97;76.34;101124.84;107562;1282;76756;-83
2022/06/16 04:27:30;;;;;;;6.00;2.70;;;;;;;13.02;76.25;101125.34;107193;1281;70969;-83
2022/06/16 04:29:59;;;;;;;4.70;2.60;;;;;;;13.09;76.11;101126.14;107409;1281;72432;-82
2022/06/16 04:32:26;;;;;;;7.50;2.70;;;;;;;13.14;76.04;101124.99;107415;1281;62309;-83
2022/06/16 04:34:56;;;;;;;5.30;2.80;;;;;;;13.18;75.88;101130.04;107559;1281;60599;-82
2022/06/16 04:37:23;;;;;;;4.20;2.60;;;;;;;13.20;75.86;101142.91;107742;1281;74891;-83
2022/06/16 04:39:50;;;;;;;5.60;3.30;;;;;;;13.21;75.71;101145.51;107150;1281;71407;-84
2022/06/16 04:42:17;;;;;;;4.90;2.70;;;;;;;13.21;75.72;101143.67;107432;1281;74511;-84
2022/06/16 04:44:45;;;;;;;8.30;2.60;;;;;;;13.26;75.77;101140.66;107748;1281;62989;-83
2022/06/16 04:47:12;;;;;;;3.90;2.40;;;;;;;13.31;75.33;101140.98;107649;1280;61598;-83
2022/06/16 04:49:39;;;;;;;3.40;2.20;;;;;;;13.36;75.39;101147.53;107469;1281;76107;-84
2022/06/16 04:52:09;;;;;;;6.40;2.50;;;;;;;13.39;75.19;101149.35;107391;1282;71761;-84
2022/06/16 04:54:39;;;;;;;5.10;2.30;;;;;;;13.48;75.09;101157.12;107724;1280;72936;-83
2022/06/16 04:57:06;;;;;;;4.80;2.70;;;;;;;13.55;75.10;101158.92;107791;1281;63109;-82
2022/06/16 04:59:36;;;;;;;6.10;2.40;;;;;;;13.63;74.77;101151.16;107324;1280;59278;-82
2022/06/16 05:02:06;;;;;;;3.60;2.00;;;;;;;13.74;74.22;101160.13;107483;1281;75174;-82
2022/06/16 05:04:56;;;;;;;7.20;2.80;;;;;;;13.84;74.03;101169.08;107386;1281;71934;-85
2022/06/16 05:07:23;;;;;;;9.30;2.70;;;;;;;13.92;73.66;101176.13;107727;1281;74195;-83
2022/06/16 05:10:00;;;;;;;4.30;2.60;;;;;;;14.00;73.51;101181.80;107416;1280;61703;-83
2022/06/16 05:12:27;;;;;;;5.60;3.00;;;;;;;14.12;73.51;101187.86;107737;1281;59567;-83
2022/06/16 05:14:54;;;;;;;3.60;2.60;;;;;;;14.23;73.37;101191.77;107689;1282;74976;-85
2022/06/16 05:17:21;;;;;;;4.30;2.40;;;;;;;14.37;73.19;101180.15;107856;1281;70438;-83
2022/06/16 05:19:48;;;;;;;8.10;3.70;;;;;;;14.50;72.30;101184.61;107647;1281;73032;-82
2022/06/16 05:22:15;;;;;;;5.30;2.90;;;;;;;14.55;71.69;101185.18;108165;1281;62312;-82
2022/06/16 05:24:42;;;;;;;4.90;3.20;;;;;;;14.60;71.59;101178.34;107975;1281;61133;-82
2022/06/16 05:27:15;;;;;;;4.70;2.50;;;;;;;14.65;71.03;101188.79;107604;1281;75368;-82
2022/06/16 05:29:45;;;;;;;7.60;3.00;;;;;;;14.67;71.00;101194.58;107515;1281;72389;-83
2022/06/16 05:32:12;;;;;;;5.00;2.30;;;;;;;14.72;71.18;101197.77;107777;1281;72914;-82
2022/06/16 05:34:44;;;;;;;4.20;2.20;;;;;;;14.72;71.09;101190.30;107480;1281;62036;-83
2022/06/16 05:37:13;;;;;;;7.20;3.20;;;;;;;14.73;70.64;101201.77;107678;1280;61219;-83
2022/06/16 05:39:40;;;;;;;7.90;2.70;;;;;;;14.73;70.78;101204.05;107303;1281;75969;-82
2022/06/16 05:42:08;;;;;;;5.20;2.60;;;;;;;14.76;70.78;101216.70;107319;1281;71590;-81
2022/06/16 05:44:36;;;;;;;5.20;2.40;;;;;;;14.78;71.05;101227.45;107165;1281;71952;-82
2022/06/16 05:47:05;;;;;;;9.00;4.90;;;;;;;14.80;71.14;101213.35;107250;1281;61377;-84
2022/06/16 05:49:33;;;;;;;3.10;2.20;;;;;;;14.86;71.00;101217.02;107306;1281;59317;-82
2022/06/16 05:52:02;;;;;;;6.70;2.20;;;;;;;14.88;70.50;101234.75;107033;1282;75006;-82
2022/06/16 05:54:30;;;;;;;5.30;2.40;;;;;;;14.89;70.79;101226.34;107432;1281;71415;-83
2022/06/16 05:56:59;;;;;;;5.20;3.00;;;;;;;14.91;70.56;101226.52;107143;1281;73727;-82
2022/06/16 05:59:26;;;;;;;16.40;8.30;;;;;;;14.93;70.74;101235.29;107163;1281;63088;-82
2022/06/16 06:02:02;;;;;;;4.60;2.80;;;;;;;14.95;71.04;101240.16;107234;1281;60702;-82
2022/06/16 06:04:32;;;;;;;3.90;2.00;;;;;;;14.96;71.01;101241.38;107834;1281;76246;-87
2022/06/16 06:07:00;;;;;;;6.50;2.90;;;;;;;14.96;70.97;101248.10;107237;1281;72602;-86
2022/06/16 06:18:08;;;;;;;3.00;1.80;;;;;;;15.14;71.25;101245.61;107921;1281;74489;-84
2022/06/16 06:20:35;;;;;;;3.70;2.20;;;;;;;15.31;71.32;101248.14;107512;1281;70995;-84
2022/06/16 06:23:02;;;;;;;12.00;4.30;;;;;;;15.48;70.83;101253.80;107186;1281;72828;-84
2022/06/16 06:25:29;;;;;;;6.90;3.70;;;;;;;15.67;70.75;101244.16;107606;1280;63563;-84
2022/06/16 06:27:56;;;;;;;6.30;3.10;;;;;;;15.86;69.71;101243.89;107071;1281;61185;-82
2022/06/16 06:30:29;;;;;;;8.00;3.20;;;;;;;15.96;68.18;101242.27;107197;1281;76128;-82
2022/06/16 06:32:57;;;;;;;8.30;5.10;;;;;;;16.05;67.82;101249.11;106854;1282;71147;-83
2022/06/16 06:35:25;;;;;;;6.60;2.60;;;;;;;16.16;67.31;101249.26;107589;1281;73137;-83
2022/06/16 06:37:52;;;;;;;3.70;2.60;;;;;;;16.28;66.86;101248.94;107431;1281;62648;-83
2022/06/16 06:40:31;;;;;;;7.10;3.80;;;;;;;16.42;66.42;101253.58;106855;1282;60553;-83
2022/06/16 06:42:58;;;;;;;;;;;;;;;16.60;66.23;101261.80;107240;1281;75925;-84
2022/06/16 06:45:25;;;;;;;;;;;;;;;16.76;65.73;101256.56;107115;1281;72387;-83
2022/06/16 06:47:52;;;;;;;2.70;1.60;;;;;;;16.79;64.95;101258.29;107052;1281;72719;-85
2022/06/16 06:50:26;;;;;;;13.50;8.80;;;;;;;16.80;64.51;101258.86;107451;1281;62320;-84
2022/06/16 06:52:53;;;;;;;6.40;3.30;;;;;;;16.89;64.80;101259.64;107132;1281;61685;-84
2022/06/16 06:55:21;;;;;;;17.50;10.30;;;;;;;17.05;64.50;101254.83;107061;1281;75793;-84
2022/06/16 06:57:52;;;;;;;5.90;2.70;;;;;;;17.16;63.48;101262.12;106964;1282;71894;-84
2022/06/16 07:00:22;;;;;;;15.70;9.40;;;;;;;17.23;63.01;101263.77;106912;1280;73485;-88
2022/06/16 07:02:49;;;;;;;5.40;2.30;;;;;;;17.31;62.89;101268.44;107266;1281;61401;-84
2022/06/16 07:05:16;;;;;;;5.80;2.30;;;;;;;17.46;62.59;101273.37;107090;1282;59438;-84
2022/06/16 07:07:46;;;;;;;10.60;7.10;;;;;;;17.63;61.81;101272.85;107197;1281;75044;-84
2022/06/16 07:10:14;;;;;;;6.50;3.80;;;;;;;17.92;61.94;101269.55;107080;1281;71485;-83
2022/06/16 07:12:41;;;;;;;7.10;4.10;;;;;;;18.21;60.70;101269.05;107204;1281;74734;-83
2022/06/16 07:15:10;;;;;;;5.30;2.10;;;;;;;18.51;59.76;101268.86;106973;1281;62206;-84
2022/06/16 07:17:37;;;;;;;4.20;2.10;;;;;;;18.71;57.71;101267.16;106840;1281;60719;-83
2022/06/16 07:20:04;;;;;;;17.20;11.70;;;;;;;18.82;56.89;101272.83;107191;1281;76137;-82
2022/06/16 07:22:31;;;;;;;5.90;2.30;;;;;;;18.96;56.56;101278.05;107004;1281;71979;-83
2022/06/16 07:24:58;;;;;;;3.30;1.80;;;;;;;19.04;55.66;101278.78;106914;1282;73016;-83
2022/06/16 07:27:25;;;;;;;3.70;1.70;;;;;;;19.12;54.72;101271.54;107393;1281;61640;-83
2022/06/16 07:29:52;;;;;;;2.70;1.80;;;;;;;19.24;54.86;101271.48;107071;1281;60433;-82
2022/06/16 07:32:20;;;;;;;11.10;6.80;;;;;;;19.35;54.52;101271.81;106950;1281;74896;-83
2022/06/16 07:34:47;;;;;;;6.60;2.80;;;;;;;19.46;54.71;101273.67;107183;1281;72475;-82
2022/06/16 07:37:15;;;;;;;4.90;2.10;;;;;;;19.57;53.32;101283.02;106953;1280;73568;-81
2022/06/16 07:39:42;;;;;;;5.50;1.90;;;;;;;19.57;52.39;101290.92;107003;1281;60706;-84
2022/06/16 07:42:09;;;;;;;3.90;1.80;;;;;;;19.58;52.91;101287.36;106838;1281;60236;-83
2022/06/16 07:44:37;;;;;;;4.70;1.80;;;;;;;19.62;52.82;101281.58;106927;1281;75348;-83
2022/06/16 07:47:05;;;;;;;9.20;4.40;;;;;;;19.73;52.46;101284.71;107015;1281;70990;-82
2022/06/16 07:49:32;;;;;;;9.00;4.70;;;;;;;19.91;52.29;101287.16;107009;1281;73240;-83
2022/06/16 07:52:00;;;;;;;2.90;1.70;;;;;;;20.09;52.17;101297.30;106876;1280;61327;-84
2022/06/16 07:54:28;;;;;;;3.90;1.70;;;;;;;20.30;51.78;101291.64;107280;1280;60680;-80
2022/06/16 07:57:18;;;;;;;4.10;1.70;;;;;;;20.52;50.86;101290.79;107118;1281;74848;-80
2022/06/16 07:59:52;;;;;;;4.90;1.90;;;;;;;20.62;49.58;101297.41;107399;1281;70757;-82
2022/06/16 08:02:20;;;;;;;9.90;6.50;;;;;;;20.70;49.07;101300.55;106899;1279;73500;-82
2022/06/16 08:04:47;;;;;;;4.60;1.90;;;;;;;20.82;48.81;101305.17;107055;1281;60470;-80
2022/06/16 08:07:14;;;;;;;5.30;2.60;;;;;;;20.92;48.46;101309.42;107473;1281;61150;-81
2022/06/16 08:09:41;;;;;;;6.40;4.00;;;;;;;20.99;47.99;101313.89;106883;1281;75848;-81
2022/06/16 08:12:10;;;;;;;5.10;2.10;;;;;;;21.14;48.94;101315.08;106942;1281;71008;-82
2022/06/16 08:14:42;;;;;;;4.00;2.00;;;;;;;21.32;48.07;101314.79;107070;1279;73521;-83
2022/06/16 08:17:13;;;;;;;19.20;13.70;;;;;;;21.48;47.35;101313.27;107224;1280;61354;-82
2022/06/16 08:19:40;;;;;;;6.60;2.10;;;;;;;21.69;46.74;101309.78;106952;1281;61533;-83
2022/06/16 08:22:08;;;;;;;5.30;3.10;;;;;;;21.85;46.21;101308.04;106893;1281;74853;-81
2022/06/16 08:24:35;;;;;;;5.10;1.80;;;;;;;21.98;45.75;101311.63;107081;1281;70625;-81
2022/06/16 08:27:04;;;;;;;5.60;1.80;;;;;;;22.00;45.04;101305.02;107046;1281;72340;-83
2022/06/16 08:29:32;;;;;;;11.50;6.30;;;;;;;21.95;45.45;101303.36;107176;1281;59435;-81
2022/06/16 08:31:59;;;;;;;4.00;2.20;;;;;;;21.94;45.82;101299.30;107420;1281;61356;-83
2022/06/16 08:34:26;;;;;;;3.80;1.80;;;;;;;21.96;45.71;101302.31;107201;1280;74898;-82
2022/06/16 08:36:53;;;;;;;4.10;2.40;;;;;;;21.98;45.34;101302.19;106864;1282;69210;-83
2022/06/16 08:39:20;;;;;;;4.40;1.60;;;;;;;22.05;45.85;101299.27;107506;1281;72670;-83
2022/06/16 08:41:58;;;;;;;5.10;1.80;;;;;;;22.11;45.48;101302.78;107077;1281;60326;-82
2022/06/16 08:44:38;;;;;;;6.50;3.50;;;;;;;22.07;44.59;101294.91;107005;1281;59083;-80
2022/06/16 08:47:19;;;;;;;5.20;1.70;;;;;;;21.99;44.83;101302.21;106792;1281;622366;-84
2022/06/16 08:49:59;;;;;;;4.40;1.80;;;;;;;21.82;44.72;101301.55;107015;1281;71347;-83
2022/06/16 08:52:38;;;;;;;4.10;1.80;;;;;;;21.79;45.29;101304.07;107437;1281;74229;-85
2022/06/16 08:55:15;;;;;;;5.00;1.70;;;;;;;21.89;45.29;101300.10;107135;1281;59927;-82
2022/06/16 08:58:12;;;;;;;5.70;2.10;;;;;;;22.07;45.57;101306.54;107331;1281;60566;-85
2022/06/16 09:01:22;;;;;;;4.20;1.60;;;;;;;22.09;45.43;101310.46;107018;1281;73507;-82
2022/06/16 09:03:57;;;;;;;4.00;1.90;;;;;;;22.18;44.22;101315.60;107689;1280;71288;-81
2022/06/16 09:07:21;;;;;;;5.00;2.50;;;;;;;22.23;43.96;101314.09;107150;1281;74125;-83
2022/06/16 09:10:14;;;;;;;39.30;29.90;;;;;;;22.55;44.13;101308.55;106548;1285;60929;-81
2022/06/16 09:12:47;;;;;;;5.50;2.10;;;;;;;22.84;43.14;101306.62;106593;1285;60583;-82
2022/06/16 09:15:28;;;;;;;3.90;1.70;;;;;;;22.87;42.24;101311.49;106931;1281;75370;-83
2022/06/16 09:18:28;;;;;;;3.60;1.70;;;;;;;22.77;42.33;101318.83;107148;1281;72962;-81
2022/06/16 09:21:11;;;;;;;6.10;3.90;;;;;;;22.54;42.24;101312.81;107066;1282;74532;-82
2022/06/16 09:23:44;;;;;;;8.70;6.30;;;;;;;22.59;43.12;101308.20;107372;1281;61462;-83
2022/06/16 09:26:19;;;;;;;8.30;5.40;;;;;;;22.63;43.15;101311.89;107314;1281;60643;-81
2022/06/16 09:29:13;;;;;;;4.80;1.90;;;;;;;22.77;42.74;101308.33;106927;1281;74955;-81
2022/06/16 09:31:59;;;;;;;4.00;1.70;;;;;;;23.11;42.81;101306.60;107263;1281;72649;-82
2022/06/16 09:34:40;;;;;;;5.00;1.70;;;;;;;23.07;41.96;101316.21;107197;1281;73276;-83
2022/06/16 09:37:24;;;;;;;4.60;1.60;;;;;;;22.83;42.43;101317.64;107023;1281;60728;-83
2022/06/16 09:40:10;;;;;;;5.10;1.70;;;;;;;22.68;43.00;101316.00;107321;1281;60330;-81
2022/06/16 09:42:42;;;;;;;4.90;1.70;;;;;;;22.65;43.49;101319.29;107021;1279;73909;-80
2022/06/16 09:45:28;;;;;;;5.00;1.60;;;;;;;22.81;43.27;101315.77;107359;1282;70585;-80
2022/06/16 09:48:03;;;;;;;3.00;1.40;;;;;;;23.28;42.71;101313.02;107001;1281;72935;-82
2022/06/16 09:50:55;;;;;;;5.00;1.60;;;;;;;23.41;40.14;101322.60;107121;1280;61638;-83
2022/06/16 09:53:30;;;;;;;3.50;1.70;;;;;;;23.37;39.83;101322.27;107552;1281;59908;-83
2022/06/16 09:56:23;;;;;;;4.50;1.70;;;;;;;23.45;40.97;101322.27;106886;1281;75007;-83
2022/06/16 09:59:02;;;;;;;4.30;1.70;;;;;;;23.72;40.62;101314.85;107259;1281;70689;-84
2022/06/16 10:01:35;;;;;;;5.20;1.80;;;;;;;23.69;40.48;101317.03;107123;1281;73515;-83
2022/06/16 10:04:05;;;;;;;3.40;1.30;;;;;;;23.53;40.06;101320.13;107401;1281;61494;-84
2022/06/16 10:06:43;;;;;;;4.90;2.10;;;;;;;23.34;40.74;101319.98;107184;1281;61086;-83
2022/06/16 10:09:29;;;;;;;9.60;7.50;;;;;;;23.28;41.17;101316.04;107446;1281;74816;-84
2022/06/16 10:12:05;;;;;;;4.30;1.90;;;;;;;23.52;41.15;101315.90;107216;1281;72437;-83
2022/06/16 10:14:34;;;;;;;4.00;1.50;;;;;;;23.56;40.20;101324.73;106957;1281;73092;-84
2022/06/16 10:17:05;;;;;;;3.40;1.40;;;;;;;23.55;40.18;101331.02;107055;1281;61328;-83
2022/06/16 10:19:38;;;;;;;3.40;1.40;;;;;;;23.44;38.60;101332.06;106780;1281;61280;-82
2022/06/16 10:22:07;;;;;;;5.00;2.90;;;;;;;23.68;39.49;101329.09;107234;1280;75190;-81
2022/06/16 10:24:43;;;;;;;5.00;2.60;;;;;;;24.01;39.77;101329.14;107424;1280;71401;-82
2022/06/16 10:27:14;;;;;;;3.50;1.40;;;;;;;24.33;39.09;101329.73;107373;1281;72920;-83
2022/06/16 10:29:57;;;;;;;3.90;1.50;;;;;;;24.38;38.12;101334.35;107218;1281;60642;-83
2022/06/16 10:32:46;;;;;;;3.70;1.50;;;;;;;24.23;37.69;101335.02;107130;1280;60972;-81
2022/06/16 10:35:19;;;;;;;4.30;1.90;;;;;;;24.09;37.74;101333.16;107569;1281;78578;-81
2022/06/16 10:37:49;;;;;;;3.30;1.30;;;;;;;24.13;37.41;101336.73;107044;1280;71845;-81
2022/06/16 10:40:22;;;;;;;4.60;1.50;;;;;;;24.22;37.59;101336.52;106810;1282;72870;-82
2022/06/16 10:42:54;;;;;;;3.60;1.30;;;;;;;24.31;37.90;101340.77;106978;1281;61609;-81
2022/06/16 10:45:31;;;;;;;2.80;1.30;;;;;;;24.44;37.78;101341.00;106990;1282;60301;-82
2022/06/16 10:48:01;;;;;;;3.80;1.60;;;;;;;24.47;37.21;101341.63;106924;1282;74631;-82
2022/06/16 10:50:47;;;;;;;3.10;1.80;;;;;;;24.57;36.18;101342.91;106966;1281;71918;-83
2022/06/16 10:53:26;;;;;;;5.00;1.30;;;;;;;24.68;37.20;101345.05;107280;1281;72607;-83
2022/06/16 10:56:02;;;;;;;3.60;1.50;;;;;;;24.36;37.44;101346.13;107329;1280;62808;-84
2022/06/16 10:58:44;;;;;;;4.30;1.60;;;;;;;24.24;37.71;101345.98;106783;1281;60420;-85
2022/06/16 11:01:35;;;;;;;5.50;1.30;;;;;;;24.25;37.15;101348.48;107179;1280;73714;-81
2022/06/16 11:04:11;;;;;;;2.90;1.30;;;;;;;24.13;37.20;101350.06;107388;1281;72064;-82
2022/06/16 11:06:45;;;;;;;5.80;1.40;;;;;;;24.19;37.32;101348.67;106910;1281;74073;-84
2022/06/16 11:09:17;;;;;;;4.80;1.70;;;;;;;24.19;36.66;101347.11;107439;1280;61296;-86
2022/06/16 11:11:54;;;;;;;5.10;1.60;;;;;;;24.29;37.31;101347.04;106907;1281;61707;-84
2022/06/16 11:14:38;;;;;;;4.10;1.60;;;;;;;24.48;36.31;101352.37;106986;1281;76147;-85
2022/06/16 11:17:20;;;;;;;2.80;1.10;;;;;;;24.57;36.56;101358.66;107600;1281;71446;-84
2022/06/16 11:19:51;;;;;;;3.70;1.30;;;;;;;24.49;35.17;101370.78;106870;1281;73069;-83
2022/06/16 11:22:35;;;;;;;3.40;1.20;;;;;;;24.40;35.46;101364.46;107226;1281;61310;-83
2022/06/16 11:25:05;;;;;;;5.00;3.10;;;;;;;24.41;34.90;101365.19;106639;1281;62110;-82
2022/06/16 11:27:49;;;;;;;2.40;1.00;;;;;;;24.33;34.63;101354.52;107122;1281;75742;-83
2022/06/16 11:30:45;;;;;;;2.90;0.90;;;;;;;24.20;34.34;101359.86;107007;1281;70941;-85
2022/06/16 11:34:06;;;;;;;3.90;1.50;;;;;;;24.18;35.21;101365.70;107259;1281;72737;-82
2022/06/16 11:36:31;;;;;;;3.90;0.90;;;;;;;24.34;34.66;101372.58;107360;1281;60588;-82
2022/06/16 11:39:22;;;;;;;3.20;1.20;;;;;;;24.28;35.17;101369.63;106845;1282;61409;-80
2022/06/16 11:41:52;;;;;;;3.70;1.10;;;;;;;24.45;35.23;101367.69;107301;1281;75996;-80
2022/06/16 11:44:37;;;;;;;2.10;0.90;;;;;;;24.45;34.42;101369.92;107048;1281;72995;-81
2022/06/16 11:47:04;;;;;;;3.20;0.90;;;;;;;24.50;34.73;101363.42;107123;1281;72405;-80
2022/06/16 11:49:55;;;;;;;2.30;0.80;;;;;;;24.58;34.05;101365.71;107407;1280;61329;-80
2022/06/16 11:52:50;;;;;;;2.80;0.80;;;;;;;24.75;34.52;101369.65;107636;1279;60263;-80
2022/06/16 11:55:26;;;;;;;3.10;0.80;;;;;;;25.02;34.20;101373.21;107152;1280;74298;-81
2022/06/16 11:58:02;;;;;;;3.00;0.80;;;;;;;25.18;33.19;101383.92;107304;1281;72825;-81
2022/06/16 12:00:48;;;;;;;3.20;0.80;;;;;;;25.22;33.12;101374.31;107057;1281;72994;-81
2022/06/16 12:03:50;;;;;;;2.90;0.80;;;;;;;25.38;33.00;101376.70;106973;1281;60422;-82
2022/06/16 12:06:32;;;;;;;2.80;0.80;;;;;;;25.35;31.59;101374.98;107742;1280;61858;-82
2022/06/16 12:08:59;;;;;;;2.50;0.70;;;;;;;25.48;32.34;101365.86;107975;1281;75301;-81
2022/06/16 12:11:39;;;;;;;3.40;0.70;;;;;;;25.56;31.78;101375.81;107692;1281;71268;-83
2022/06/16 12:14:57;;;;;;;2.10;0.60;;;;;;;25.71;31.86;101368.49;107794;1281;72712;-84